Newtown, West Virginia
Current Conditions -  °F | °C
As of 1:15 AM on Wednesday 28 Jan 2015 (Local Time) from KPBX Reporting Station
Light Snow Light Snow  
Wind Chill: 12°   Ceiling: 2000
Heat Index: 20°   Visibility: 2.5mi
Dew Point: 16°   Wind: 6mph
Humidity: 86%   Direction: 10°N
Pressure: 30.18"   Gusts: NA
Location:  37.62°N, 82.08°W
Report Text: KPBX 280615Z AUTO 01005KT 2 1/2SM -SN OVC020 M07/M09 A3018 RMK AO2 VIS 1 3/4V4 T10691089
Loading
Personal Weather Stations






























Interactive Weather Map New forecast layout! Learn more

10-Day Weather Forecast

Advertisements
Track Severe Weather on mobile